createdAt,value
2018-07-06T00:02:30.207Z,14.77
2018-07-06T00:05:10.347Z,12.67
2018-07-06T00:07:50.456Z,12.03
2018-07-06T00:10:30.579Z,12.47
2018-07-06T00:13:11.282Z,12.17
2018-07-06T00:15:51.606Z,12.70
2018-07-06T00:18:31.890Z,13.60
2018-07-06T00:21:11.952Z,14.00
2018-07-06T00:23:52.068Z,14.43
2018-07-06T00:26:32.504Z,17.47
2018-07-06T00:29:06.621Z,17.80
2018-07-06T00:31:47.734Z,17.00
2018-07-06T00:34:27.994Z,17.30
2018-07-06T00:37:08.075Z,17.63
2018-07-06T00:39:49.218Z,17.70
2018-07-06T00:42:29.240Z,16.80
2018-07-06T00:45:09.454Z,16.50
2018-07-06T00:47:49.716Z,16.40
2018-07-06T00:50:29.874Z,16.10
2018-07-06T00:53:10.626Z,17.23
2018-07-06T00:55:50.766Z,17.03
2018-07-06T00:58:30.948Z,17.47
2018-07-06T01:01:11.126Z,17.50
2018-07-06T01:03:51.322Z,16.30
2018-07-06T01:06:31.412Z,16.83
2018-07-06T01:09:11.707Z,16.73
2018-07-06T01:11:51.986Z,17.50
2018-07-06T01:14:33.144Z,18.37
2018-07-06T01:17:11.596Z,17.10
2018-07-06T01:19:52.472Z,18.37
2018-07-06T01:22:32.614Z,19.00
2018-07-06T01:25:13.720Z,17.50
2018-07-06T01:27:54.058Z,19.20
2018-07-06T01:30:34.502Z,17.70
2018-07-06T01:33:14.766Z,16.03
2018-07-06T01:35:55.230Z,18.80
2018-07-06T01:38:35.316Z,20.10
2018-07-06T01:41:15.962Z,20.20
2018-07-06T01:43:56.395Z,19.17
2018-07-06T01:46:36.624Z,19.80
2018-07-06T01:49:16.734Z,21.20
2018-07-06T01:51:56.917Z,17.97
2018-07-06T01:54:37.059Z,17.37
2018-07-06T01:57:17.241Z,18.23
2018-07-06T01:59:57.380Z,18.07
2018-07-06T02:02:37.554Z,16.97
2018-07-06T02:05:17.727Z,18.23
2018-07-06T02:07:57.863Z,16.90
2018-07-06T02:10:32.009Z,19.23
2018-07-06T02:13:12.249Z,19.40
2018-07-06T02:15:52.523Z,19.23
2018-07-06T02:18:32.750Z,17.40
2018-07-06T02:21:13.359Z,18.00
2018-07-06T02:23:53.531Z,17.90
2018-07-06T02:26:33.745Z,15.97
2018-07-06T02:29:13.882Z,15.73
2018-07-06T02:31:53.992Z,15.70
2018-07-06T02:34:34.325Z,14.70
2018-07-06T02:37:14.771Z,15.17
2018-07-06T02:39:54.901Z,16.37
2018-07-06T02:42:35.282Z,16.67
2018-07-06T02:45:15.403Z,16.00
2018-07-06T02:47:55.606Z,15.57
2018-07-06T02:50:35.728Z,14.87
2018-07-06T02:53:15.881Z,16.17
2018-07-06T02:55:56.118Z,16.00
2018-07-06T02:58:36.291Z,14.03
2018-07-06T03:01:16.457Z,15.20
2018-07-06T03:03:56.702Z,12.53
2018-07-06T03:06:36.866Z,13.10
2018-07-06T03:09:17.091Z,12.10
2018-07-06T03:11:57.405Z,11.50
2018-07-06T03:14:37.580Z,10.53
2018-07-06T03:17:17.769Z,9.70
2018-07-06T03:19:57.938Z,9.30
2018-07-06T03:22:38.262Z,8.27
2018-07-06T03:25:18.453Z,6.83
2018-07-06T03:27:52.633Z,5.97
2018-07-06T03:30:32.790Z,6.37
2018-07-06T03:33:12.924Z,5.20
2018-07-06T03:35:53.061Z,5.37
2018-07-06T03:38:33.198Z,5.30
2018-07-06T03:41:13.383Z,3.77
2018-07-06T03:43:53.775Z,4.50
2018-07-06T03:46:34.052Z,4.67
2018-07-06T03:49:14.206Z,3.67
2018-07-06T03:51:55.030Z,3.90
2018-07-06T03:54:35.223Z,3.97
2018-07-06T03:57:15.425Z,4.80
2018-07-06T03:59:55.578Z,4.20
2018-07-06T04:02:35.664Z,3.77
2018-07-06T04:05:15.871Z,4.07
2018-07-06T04:07:56.127Z,3.10
2018-07-06T04:10:36.332Z,4.03
2018-07-06T04:13:16.537Z,3.97
2018-07-06T04:15:56.685Z,4.00
2018-07-06T04:18:37.174Z,4.00
2018-07-06T04:21:17.513Z,4.70
2018-07-06T04:23:57.722Z,4.00
2018-07-06T04:26:37.865Z,4.10
2018-07-06T04:29:18.043Z,4.07
2018-07-06T04:31:58.381Z,4.50
2018-07-06T04:34:39.134Z,5.27
2018-07-06T04:37:19.368Z,4.47
2018-07-06T04:39:59.544Z,4.40
2018-07-06T04:42:39.650Z,4.27
2018-07-06T04:45:13.888Z,3.80
2018-07-06T04:47:54.191Z,4.17
2018-07-06T04:50:34.406Z,3.80
2018-07-06T04:53:14.654Z,4.00
2018-07-06T04:55:54.916Z,4.90
2018-07-06T04:58:35.137Z,4.60
2018-07-06T05:01:15.462Z,4.27
2018-07-06T05:03:56.329Z,3.93
2018-07-06T05:06:36.620Z,3.87
2018-07-06T05:09:16.875Z,4.40
2018-07-06T05:11:57.143Z,3.80
2018-07-06T05:14:31.325Z,3.50
2018-07-06T05:17:11.424Z,4.30
2018-07-06T05:19:51.931Z,4.33
2018-07-06T05:22:32.304Z,4.20
2018-07-06T05:25:12.325Z,4.47
2018-07-06T05:27:52.633Z,4.00
2018-07-06T05:30:33.059Z,4.43
2018-07-06T05:33:13.360Z,4.73
2018-07-06T05:35:53.567Z,4.53
2018-07-06T05:38:33.717Z,4.00
2018-07-06T05:41:13.899Z,4.27
2018-07-06T05:43:54.071Z,4.57
2018-07-06T05:46:34.261Z,4.20
2018-07-06T05:49:14.619Z,5.00
2018-07-06T05:51:55.681Z,4.70
2018-07-06T05:54:35.823Z,4.80
2018-07-06T05:57:09.973Z,4.63
2018-07-06T05:59:50.019Z,4.13
2018-07-06T06:02:30.179Z,4.47
2018-07-06T06:05:10.433Z,4.37
2018-07-06T06:07:38.337Z,3.30
2018-07-06T06:10:07.591Z,3.50
2018-07-06T06:12:36.742Z,3.80
2018-07-06T06:15:06.195Z,4.00
2018-07-06T06:17:36.803Z,3.37
2018-07-06T06:20:07.385Z,3.43
2018-07-06T06:22:36.843Z,3.53
2018-07-06T06:25:05.608Z,3.23
2018-07-06T06:27:34.584Z,3.13
2018-07-06T06:30:03.992Z,4.03
2018-07-06T06:32:33.183Z,3.77
2018-07-06T06:35:02.400Z,3.60
2018-07-06T06:37:31.782Z,3.50
2018-07-06T06:40:00.981Z,3.20
2018-07-06T06:42:30.185Z,3.63
2018-07-06T06:44:59.652Z,3.00
2018-07-06T06:47:28.853Z,3.23
2018-07-06T06:49:58.084Z,3.70
2018-07-06T06:52:27.541Z,3.60
2018-07-06T06:54:56.697Z,4.03
2018-07-06T06:57:26.596Z,3.60
2018-07-06T06:59:55.998Z,4.03
2018-07-06T07:02:25.146Z,4.07
2018-07-06T07:04:54.361Z,4.07
2018-07-06T07:07:23.699Z,3.43
2018-07-06T07:09:53.816Z,3.57
2018-07-06T07:12:22.915Z,3.43
2018-07-06T07:14:52.127Z,3.60
2018-07-06T07:17:21.309Z,4.13
2018-07-06T07:19:50.956Z,4.07
2018-07-06T07:22:20.672Z,4.00
2018-07-06T07:24:49.409Z,4.03
2018-07-06T07:27:18.688Z,3.80
2018-07-06T07:29:47.906Z,3.90
2018-07-06T07:32:17.103Z,3.93
2018-07-06T07:34:46.586Z,3.50
2018-07-06T07:37:15.788Z,4.10
2018-07-06T07:39:45.001Z,3.63
2018-07-06T07:42:14.722Z,3.60
2018-07-06T07:44:43.858Z,4.50
2018-07-06T07:47:13.058Z,5.00
2018-07-06T07:49:42.316Z,4.53
2018-07-06T07:52:22.508Z,4.80
2018-07-06T07:54:54.226Z,4.47
2018-07-06T07:57:23.768Z,4.53
2018-07-06T07:59:53.812Z,5.07
2018-07-06T08:02:22.978Z,4.50
2018-07-06T08:04:52.219Z,4.67
2018-07-06T08:07:21.692Z,4.60
2018-07-06T08:09:50.847Z,4.30
2018-07-06T08:12:19.892Z,4.53
2018-07-06T08:14:49.506Z,4.43
2018-07-06T08:17:18.630Z,4.90
2018-07-06T08:19:47.742Z,4.20
2018-07-06T08:22:17.499Z,4.33
2018-07-06T08:24:46.740Z,4.70
2018-07-06T08:27:15.828Z,4.90
2018-07-06T08:29:45.041Z,4.40
2018-07-06T08:32:14.148Z,4.23
2018-07-06T08:34:54.372Z,4.13
2018-07-06T08:37:38.962Z,4.27
2018-07-06T08:40:08.175Z,4.63
2018-07-06T08:42:38.578Z,4.03
2018-07-06T08:45:08.236Z,4.10
2018-07-06T08:47:37.440Z,4.90
2018-07-06T08:50:07.182Z,3.90
2018-07-06T08:52:37.058Z,3.80
2018-07-06T08:55:06.425Z,3.80
2018-07-06T08:57:36.012Z,3.77
2018-07-06T09:00:05.284Z,3.30
2018-07-06T09:02:34.745Z,3.43
2018-07-06T09:05:04.010Z,3.70
2018-07-06T09:07:33.135Z,3.20
2018-07-06T09:10:03.034Z,3.40
2018-07-06T09:12:32.136Z,3.93
2018-07-06T09:15:01.840Z,4.10
2018-07-06T09:28:57.764Z,2.80
2018-07-06T09:31:26.554Z,3.23
2018-07-06T09:33:55.602Z,3.47
2018-07-06T09:36:24.888Z,3.13
2018-07-06T09:38:54.003Z,2.70
2018-07-06T09:41:23.170Z,3.30
2018-07-06T09:43:52.615Z,3.70
2018-07-06T09:46:21.703Z,3.30
2018-07-06T09:48:50.802Z,3.40
2018-07-06T09:51:20.738Z,2.90
2018-07-06T09:53:49.810Z,3.03
2018-07-06T09:56:18.900Z,3.07
2018-07-06T09:58:48.190Z,3.13
2018-07-06T10:01:17.284Z,3.33
2018-07-06T10:03:46.418Z,3.50
2018-07-06T10:06:16.037Z,3.40
2018-07-06T10:08:45.089Z,2.80
2018-07-06T10:11:14.175Z,3.10
2018-07-06T10:13:43.630Z,2.87
2018-07-06T10:16:12.883Z,3.60
2018-07-06T10:18:41.984Z,3.30
2018-07-06T10:21:11.306Z,3.50
2018-07-06T10:23:40.158Z,3.53
2018-07-06T10:26:09.174Z,3.97
2018-07-06T10:30:55.828Z,4.90
2018-07-06T10:33:24.656Z,5.60
2018-07-06T10:35:54.044Z,5.67
2018-07-06T10:38:23.162Z,5.23
2018-07-06T10:40:52.334Z,4.87
2018-07-06T10:43:21.654Z,5.80
2018-07-06T10:45:50.726Z,6.20
2018-07-06T10:48:19.838Z,6.10
2018-07-06T10:50:49.274Z,6.80
2018-07-06T10:53:18.356Z,7.20
2018-07-06T10:55:47.467Z,7.07
2018-07-06T10:58:16.712Z,6.83
2018-07-06T11:00:45.853Z,6.50
2018-07-06T11:03:14.987Z,7.10
2018-07-06T11:05:44.266Z,7.80
2018-07-06T11:08:13.411Z,7.67
2018-07-06T11:10:42.525Z,8.03
2018-07-06T11:13:11.835Z,7.87
2018-07-06T11:15:40.999Z,7.83
2018-07-06T11:18:10.084Z,8.40
2018-07-06T11:20:39.307Z,8.03
2018-07-06T11:23:08.441Z,7.80
2018-07-06T11:25:37.517Z,8.40
2018-07-06T11:28:06.776Z,8.23
2018-07-06T11:30:35.884Z,7.07
2018-07-06T11:33:05.488Z,8.17
2018-07-06T11:35:34.728Z,7.80
2018-07-06T11:38:03.893Z,9.70
2018-07-06T11:40:33.072Z,8.20
2018-07-06T11:43:02.755Z,7.70
2018-07-06T11:45:31.907Z,8.17
2018-07-06T11:48:01.057Z,7.47
2018-07-06T11:50:30.616Z,6.60
2018-07-06T11:52:59.796Z,6.83
2018-07-06T11:55:28.986Z,6.77
2018-07-06T11:57:58.533Z,6.40
2018-07-06T12:00:28.238Z,6.07
2018-07-06T12:02:58.039Z,7.13
2018-07-06T12:05:28.674Z,6.03
2018-07-06T12:07:57.846Z,6.40
2018-07-06T12:10:26.952Z,6.50
2018-07-06T12:12:56.210Z,6.40
2018-07-06T12:15:25.337Z,6.10
2018-07-06T12:17:54.420Z,6.23
2018-07-06T12:20:23.713Z,6.00
2018-07-06T12:22:52.884Z,6.30
2018-07-06T12:25:21.990Z,6.67
2018-07-06T12:27:51.245Z,7.10
2018-07-06T12:30:20.261Z,7.23
2018-07-06T12:32:49.392Z,6.50
2018-07-06T12:35:18.783Z,6.77
2018-07-06T12:37:47.916Z,6.67
2018-07-06T12:40:17.280Z,7.27
2018-07-06T12:42:46.461Z,7.40
2018-07-06T12:45:15.597Z,8.97
2018-07-06T12:47:44.727Z,7.33
2018-07-06T12:50:14.027Z,7.33
2018-07-06T12:52:43.098Z,7.23
2018-07-06T12:55:12.190Z,7.73
2018-07-06T12:57:41.409Z,8.80
2018-07-06T13:00:10.513Z,7.60
2018-07-06T13:02:39.677Z,8.33
2018-07-06T13:05:08.952Z,7.60
2018-07-06T13:07:38.101Z,7.83
2018-07-06T13:10:07.675Z,8.03
2018-07-06T13:12:37.004Z,9.37
2018-07-06T13:15:06.146Z,11.90
2018-07-06T13:17:35.257Z,10.97
2018-07-06T13:20:04.865Z,14.20
2018-07-06T13:22:34.185Z,11.23
2018-07-06T13:25:03.315Z,10.27
2018-07-06T13:27:32.717Z,8.47
2018-07-06T13:30:01.467Z,8.40
2018-07-06T13:32:30.482Z,10.50
2018-07-06T13:34:59.747Z,10.23
2018-07-06T13:37:29.061Z,7.43
2018-07-06T13:39:58.159Z,6.10
2018-07-06T13:42:27.443Z,5.87
2018-07-06T13:44:56.584Z,4.80
2018-07-06T13:47:25.479Z,4.47
2018-07-06T13:49:54.844Z,4.60
2018-07-06T13:52:23.980Z,4.90
2018-07-06T13:54:53.209Z,5.10
2018-07-06T13:57:22.949Z,5.50
2018-07-06T13:59:52.609Z,6.40
2018-07-06T14:02:21.725Z,6.23
2018-07-06T14:04:51.057Z,6.60
2018-07-06T14:07:20.287Z,7.53
2018-07-06T14:09:49.087Z,6.90
2018-07-06T14:12:18.276Z,8.60
2018-07-06T14:14:47.405Z,8.40
2018-07-06T14:17:16.522Z,7.90
2018-07-06T14:19:45.734Z,8.23
2018-07-06T14:22:14.858Z,7.40
2018-07-06T14:24:43.633Z,7.50
2018-07-06T14:27:12.704Z,6.40
2018-07-06T14:29:41.778Z,5.90
2018-07-06T14:32:10.884Z,5.20
2018-07-06T14:34:40.254Z,4.93
2018-07-06T14:37:09.374Z,4.37
2018-07-06T14:39:38.368Z,3.90
2018-07-06T14:42:07.574Z,4.40
2018-07-06T14:44:36.768Z,4.80
2018-07-06T14:47:05.952Z,6.20
2018-07-06T14:49:35.494Z,4.60
2018-07-06T14:52:04.617Z,4.50
2018-07-06T14:54:33.375Z,5.07
2018-07-06T14:57:02.621Z,5.77
2018-07-06T14:59:32.193Z,5.50
2018-07-06T15:02:01.269Z,6.17
2018-07-06T15:04:31.017Z,6.33
2018-07-06T15:07:01.125Z,6.60
2018-07-06T15:09:30.213Z,5.50
2018-07-06T15:11:59.341Z,5.90
2018-07-06T15:14:28.635Z,6.20
2018-07-06T15:16:57.447Z,5.70
2018-07-06T15:19:26.489Z,5.60
2018-07-06T15:21:55.695Z,6.00
2018-07-06T15:24:24.801Z,7.43
2018-07-06T15:26:54.716Z,6.90
2018-07-06T15:29:24.291Z,8.37
2018-07-06T15:31:53.459Z,9.40
2018-07-06T15:34:22.585Z,7.73
2018-07-06T15:36:52.053Z,9.73
2018-07-06T15:39:21.191Z,10.70
2018-07-06T15:41:50.483Z,10.00
2018-07-06T15:44:20.061Z,9.83
2018-07-06T15:46:49.182Z,9.50
2018-07-06T15:49:18.303Z,8.90
2018-07-06T15:51:47.568Z,9.17
2018-07-06T15:54:16.683Z,8.80
2018-07-06T15:56:45.805Z,8.80
2018-07-06T15:59:15.137Z,8.80
2018-07-06T16:01:44.257Z,8.43
2018-07-06T16:04:13.439Z,8.37
2018-07-06T16:06:42.623Z,8.40
2018-07-06T16:09:11.417Z,9.20
2018-07-06T16:11:40.466Z,8.60
2018-07-06T16:14:10.158Z,9.00
2018-07-06T16:16:39.232Z,9.07
2018-07-06T16:19:08.369Z,10.17
2018-07-06T16:21:37.830Z,10.00
2018-07-06T16:24:06.989Z,11.07
2018-07-06T16:26:36.147Z,10.80
2018-07-06T16:29:05.357Z,9.57
2018-07-06T16:31:34.475Z,9.83
2018-07-06T16:34:03.224Z,10.57
2018-07-06T16:36:32.403Z,9.90
2018-07-06T16:39:01.522Z,10.73
2018-07-06T16:41:30.601Z,10.40
2018-07-06T16:44:00.256Z,9.60
2018-07-06T16:46:29.337Z,10.20
2018-07-06T16:48:58.525Z,9.60
2018-07-06T16:51:27.724Z,10.20
2018-07-06T16:53:57.200Z,10.63
2018-07-06T16:56:26.325Z,10.50
2018-07-06T16:58:55.606Z,10.73
2018-07-06T17:01:24.696Z,9.73
2018-07-06T17:03:53.821Z,9.73
2018-07-06T17:06:22.727Z,10.23
2018-07-06T17:08:51.757Z,11.77
2018-07-06T17:11:21.095Z,10.70
2018-07-06T17:13:50.205Z,11.00
2018-07-06T17:16:18.871Z,11.23
2018-07-06T17:18:47.572Z,11.40
2018-07-06T17:21:16.533Z,11.03
2018-07-06T17:23:45.576Z,11.77
2018-07-06T17:26:14.863Z,10.30
2018-07-06T17:28:44.593Z,12.50
2018-07-06T17:31:13.719Z,12.03
2018-07-06T17:33:42.816Z,11.57
2018-07-06T17:36:12.248Z,11.47
2018-07-06T17:38:41.325Z,12.40
2018-07-06T17:41:10.416Z,12.37
2018-07-06T17:43:39.882Z,11.20
2018-07-06T17:46:09.171Z,11.70
2018-07-06T17:48:37.939Z,11.53
2018-07-06T17:51:07.392Z,11.60
2018-07-06T17:53:36.183Z,9.87
2018-07-06T17:56:05.525Z,10.60
2018-07-06T17:58:34.733Z,10.63
2018-07-06T18:01:03.497Z,11.80
2018-07-06T18:03:32.225Z,11.13
2018-07-06T18:06:01.610Z,10.60
2018-07-06T18:08:30.805Z,10.70
2018-07-06T18:10:59.881Z,10.87
2018-07-06T18:13:29.327Z,9.93
2018-07-06T18:15:58.504Z,9.70
2018-07-06T18:18:27.565Z,10.13
2018-07-06T18:20:56.871Z,8.50
2018-07-06T18:23:26.018Z,9.40
2018-07-06T18:25:55.249Z,8.10
2018-07-06T18:28:24.529Z,9.60
2018-07-06T18:30:53.701Z,10.40
2018-07-06T18:33:22.823Z,10.37
2018-07-06T18:35:52.085Z,10.60
2018-07-06T18:38:20.869Z,10.97
2018-07-06T18:40:50.481Z,11.30
2018-07-06T18:43:19.760Z,11.43
2018-07-06T18:45:48.952Z,11.30
2018-07-06T18:48:18.417Z,11.10
2018-07-06T18:50:47.885Z,12.70
2018-07-06T18:53:16.975Z,11.37
2018-07-06T18:55:46.116Z,12.27
2018-07-06T18:58:15.257Z,11.20
2018-07-06T19:00:44.408Z,12.63
2018-07-06T19:03:13.511Z,11.90
2018-07-06T19:05:43.135Z,12.27
2018-07-06T19:08:12.214Z,12.80
2018-07-06T19:10:41.311Z,14.07
2018-07-06T19:13:10.887Z,12.50
2018-07-06T19:15:39.973Z,11.80
2018-07-06T19:18:09.118Z,13.20
2018-07-06T19:20:37.925Z,13.20
2018-07-06T19:23:07.019Z,14.53
2018-07-06T19:25:36.201Z,14.70
2018-07-06T19:28:05.459Z,14.50
2018-07-06T19:30:34.573Z,13.63
2018-07-06T19:33:03.685Z,13.30
2018-07-06T19:35:32.921Z,12.43
2018-07-06T19:38:01.573Z,14.40
2018-07-06T19:40:30.595Z,15.20
2018-07-06T19:43:00.042Z,14.40
2018-07-06T19:45:29.137Z,14.93
2018-07-06T19:47:58.214Z,16.00
2018-07-06T19:50:27.857Z,14.97
2018-07-06T19:52:57.019Z,14.00
2018-07-06T19:55:26.166Z,14.43
2018-07-06T19:57:55.429Z,15.23
2018-07-06T20:00:24.525Z,14.50
2018-07-06T20:02:53.625Z,14.37
2018-07-06T20:05:22.787Z,14.67
2018-07-06T20:07:51.933Z,16.40
2018-07-06T20:10:21.001Z,15.20
2018-07-06T20:12:50.323Z,14.93
2018-07-06T20:15:19.413Z,15.10
2018-07-06T20:17:48.547Z,14.90
2018-07-06T20:20:17.731Z,15.07
2018-07-06T20:22:46.855Z,16.17
2018-07-06T20:25:15.941Z,16.00
2018-07-06T20:27:45.307Z,16.97
2018-07-06T20:30:14.420Z,18.30
2018-07-06T20:32:43.498Z,16.97
2018-07-06T20:35:12.711Z,16.70
2018-07-06T20:37:41.702Z,15.60
2018-07-06T20:40:10.822Z,16.10
2018-07-06T20:42:40.053Z,17.90
2018-07-06T20:45:09.266Z,17.67
2018-07-06T20:47:38.356Z,18.80
2018-07-06T20:50:07.738Z,17.07
2018-07-06T20:52:36.984Z,18.37
2018-07-06T20:55:06.318Z,18.70
2018-07-06T20:57:35.614Z,19.17
2018-07-06T21:00:04.745Z,19.03
2018-07-06T21:02:33.912Z,18.03
2018-07-06T21:05:03.152Z,20.00
2018-07-06T21:07:32.248Z,19.93
2018-07-06T21:10:01.356Z,20.17
2018-07-06T21:12:30.528Z,18.97
2018-07-06T21:14:59.668Z,20.90
2018-07-06T21:17:28.926Z,19.23
2018-07-06T21:19:58.044Z,19.10
2018-07-06T21:22:27.172Z,19.03
2018-07-06T21:24:56.360Z,20.40
2018-07-06T21:27:25.466Z,19.60
2018-07-06T21:29:54.562Z,19.40
2018-07-06T21:32:25.043Z,19.80
2018-07-06T21:34:54.110Z,20.10
2018-07-06T21:37:23.242Z,20.27
2018-07-06T21:39:52.552Z,20.17
2018-07-06T21:42:21.658Z,18.40
2018-07-06T21:44:50.758Z,18.60
2018-07-06T21:47:20.030Z,19.97
2018-07-06T21:49:49.156Z,17.80
2018-07-06T21:52:18.282Z,19.90
2018-07-06T21:54:48.672Z,22.10
2018-07-06T21:57:18.260Z,19.10
2018-07-06T21:59:47.382Z,19.87
2018-07-06T22:02:16.868Z,21.10
2018-07-06T22:04:47.109Z,21.80
2018-07-06T22:07:16.842Z,19.90
2018-07-06T22:09:46.369Z,22.07
2018-07-06T22:12:15.460Z,21.67
2018-07-06T22:14:44.578Z,22.60
2018-07-06T22:17:13.746Z,21.70
2018-07-06T22:19:42.846Z,22.30
2018-07-06T22:22:11.954Z,22.87
2018-07-06T22:24:41.226Z,22.77
2018-07-06T22:27:10.001Z,23.23
2018-07-06T22:29:39.119Z,23.83
2018-07-06T22:32:08.442Z,22.67
2018-07-06T22:34:37.540Z,22.07
2018-07-06T22:37:06.646Z,18.80
2018-07-06T22:39:35.921Z,20.87
2018-07-06T22:42:05.698Z,20.10
2018-07-06T22:44:34.463Z,18.63
2018-07-06T22:47:03.604Z,20.50
2018-07-06T22:49:32.730Z,21.27
2018-07-06T22:52:01.810Z,21.57
2018-07-06T22:54:31.230Z,23.00
2018-07-06T22:57:00.530Z,22.40
2018-07-06T22:59:29.610Z,21.83
2018-07-06T23:01:59.172Z,22.37
2018-07-06T23:04:28.254Z,22.80
2018-07-06T23:06:57.420Z,23.50
2018-07-06T23:09:26.642Z,22.13
2018-07-06T23:11:55.754Z,21.97
2018-07-06T23:14:24.886Z,23.33
2018-07-06T23:16:54.249Z,21.33
2018-07-06T23:19:23.336Z,21.60
2018-07-06T23:21:52.720Z,21.90
2018-07-06T23:24:22.216Z,21.47
2018-07-06T23:26:51.306Z,24.43
2018-07-06T23:29:20.408Z,21.90
2018-07-06T23:31:49.862Z,21.50
2018-07-06T23:34:18.777Z,20.37
2018-07-06T23:36:47.775Z,17.33
2018-07-06T23:39:17.394Z,18.27
2018-07-06T23:41:46.504Z,20.50
2018-07-06T23:44:15.602Z,19.33
2018-07-06T23:46:44.824Z,18.93
2018-07-06T23:49:13.912Z,19.30
2018-07-06T23:51:42.982Z,21.03
2018-07-06T23:54:12.152Z,19.67
2018-07-06T23:56:41.242Z,21.30
2018-07-06T23:59:10.762Z,19.20
